createdAt,value
2024-04-15T00:01:48.376Z,100021.41
2024-04-15T00:04:15.194Z,100019.69
2024-04-15T00:06:42.238Z,100010.00
2024-04-15T00:09:09.311Z,100001.03
2024-04-15T00:11:36.027Z,100010.94
2024-04-15T00:14:02.723Z,100001.72
2024-04-15T00:16:30.630Z,99999.66
2024-04-15T00:18:58.406Z,100000.94
2024-04-15T00:21:25.194Z,100000.63
2024-04-15T00:23:51.973Z,100000.25
2024-04-15T00:26:20.116Z,99998.09
2024-04-15T00:28:47.271Z,99987.72
2024-04-15T00:31:14.124Z,99984.50
2024-04-15T00:33:40.916Z,99989.66
2024-04-15T00:36:08.018Z,99996.56
2024-04-15T00:38:34.814Z,99982.59
2024-04-15T00:41:01.728Z,99986.31
2024-04-15T00:43:28.991Z,99977.28
2024-04-15T00:45:55.817Z,99976.56
2024-04-15T00:48:22.931Z,99974.66
2024-04-15T00:50:50.675Z,99972.00
2024-04-15T00:53:23.698Z,99965.06
2024-04-15T00:55:54.439Z,99960.84
2024-04-15T00:58:22.210Z,99951.63
2024-04-15T01:00:49.343Z,99946.81
2024-04-15T01:03:16.865Z,99945.22
2024-04-15T01:05:44.468Z,99940.50
2024-04-15T01:08:12.725Z,99937.09
2024-04-15T01:10:51.007Z,99932.44
2024-04-15T01:13:26.386Z,99924.69
2024-04-15T01:15:57.645Z,99926.50
2024-04-15T01:18:24.823Z,99922.69
2024-04-15T01:20:57.334Z,99904.19
2024-04-15T01:23:24.836Z,99898.53
2024-04-15T01:25:52.704Z,99897.22
2024-04-15T01:28:21.890Z,99888.00
2024-04-15T01:30:49.875Z,99895.47
2024-04-15T01:33:17.059Z,99907.13
2024-04-15T01:35:43.812Z,99896.69
2024-04-15T01:38:11.744Z,99904.19
2024-04-15T01:40:41.999Z,99893.44
2024-04-15T01:43:09.038Z,99906.84
2024-04-15T01:45:36.637Z,99917.44
2024-04-15T01:48:04.808Z,99925.88
2024-04-15T01:50:31.867Z,99920.25
2024-04-15T01:53:04.983Z,99912.78
2024-04-15T01:55:35.869Z,99910.78
2024-04-15T01:58:07.514Z,99908.41
2024-04-15T02:00:34.990Z,99906.38
2024-04-15T02:03:01.772Z,99905.09
2024-04-15T02:05:29.826Z,99887.53
2024-04-15T02:07:58.343Z,99873.91
2024-04-15T02:10:25.507Z,99876.53
2024-04-15T02:12:53.186Z,99861.03
2024-04-15T02:15:19.883Z,99864.91
2024-04-15T02:17:52.777Z,99856.78
2024-04-15T02:20:19.529Z,99874.88
2024-04-15T02:22:46.675Z,99873.81
2024-04-15T02:25:13.780Z,99886.22
2024-04-15T02:27:41.053Z,99881.34
2024-04-15T02:30:08.710Z,99902.19
2024-04-15T02:32:36.092Z,99910.03
2024-04-15T02:35:03.134Z,99903.03
2024-04-15T02:37:30.136Z,99930.75
2024-04-15T02:39:57.469Z,99926.31
2024-04-15T02:42:24.154Z,99917.94
2024-04-15T02:44:51.220Z,99928.19
2024-04-15T02:47:18.555Z,99933.16
2024-04-15T02:49:45.244Z,99939.25
2024-04-15T02:52:12.469Z,99959.31
2024-04-15T02:54:39.748Z,99953.88
2024-04-15T02:57:07.074Z,99960.22
2024-04-15T02:59:33.805Z,99955.09
2024-04-15T03:02:00.565Z,99978.88
2024-04-15T03:04:27.533Z,99971.72
2024-04-15T03:06:54.534Z,99944.88
2024-04-15T03:09:24.834Z,99959.13
2024-04-15T03:11:51.578Z,99981.50
2024-04-15T03:14:18.679Z,99964.28
2024-04-15T03:16:46.358Z,99983.59
2024-04-15T03:19:13.175Z,99997.00
2024-04-15T03:21:42.421Z,99972.72
2024-04-15T03:24:10.199Z,100014.59
2024-04-15T03:26:40.063Z,99978.00
2024-04-15T03:29:07.245Z,99970.38
2024-04-15T03:31:33.971Z,99981.84
2024-04-15T03:34:00.737Z,99975.81
2024-04-15T03:36:27.435Z,99986.03
2024-04-15T03:38:54.154Z,99994.81
2024-04-15T03:41:20.855Z,99988.13
2024-04-15T03:43:48.031Z,99997.22
2024-04-15T03:46:14.864Z,99986.19
2024-04-15T03:48:41.747Z,99984.66
2024-04-15T03:51:08.582Z,99991.78
2024-04-15T03:53:38.784Z,99992.28
2024-04-15T03:56:06.682Z,99982.50
2024-04-15T03:58:33.404Z,99976.13
2024-04-15T04:01:04.069Z,99987.31
2024-04-15T04:03:30.899Z,99983.97
2024-04-15T04:06:09.698Z,99970.03
2024-04-15T04:08:38.857Z,99971.41
2024-04-15T04:11:08.081Z,99962.69
2024-04-15T04:13:36.576Z,99953.44
2024-04-15T04:16:06.922Z,99955.13
2024-04-15T04:18:34.331Z,99949.84
2024-04-15T04:21:02.457Z,99950.91
2024-04-15T04:23:29.391Z,99944.16
2024-04-15T04:26:00.990Z,99946.41
2024-04-15T04:28:30.204Z,99948.19
2024-04-15T04:31:03.300Z,99942.16
2024-04-15T04:33:31.191Z,99944.69
2024-04-15T04:35:57.943Z,99953.53
2024-04-15T04:38:26.094Z,99959.63
2024-04-15T04:41:05.723Z,99966.28
2024-04-15T04:43:33.906Z,99954.34
2024-04-15T04:46:12.821Z,99955.84
2024-04-15T04:48:41.538Z,99956.72
2024-04-15T04:51:16.669Z,99945.72
2024-04-15T04:53:43.938Z,99937.91
2024-04-15T04:56:12.102Z,99936.00
2024-04-15T04:58:40.406Z,99935.63
2024-04-15T05:01:19.019Z,99929.81
2024-04-15T05:04:11.009Z,99934.41
2024-04-15T05:06:38.884Z,99929.63
2024-04-15T05:09:08.394Z,99936.41
2024-04-15T05:11:38.021Z,99927.38
2024-04-15T05:14:11.428Z,99936.06
2024-04-15T05:16:47.820Z,99934.19
2024-04-15T05:19:14.888Z,99924.97
2024-04-15T05:21:44.652Z,99930.25
2024-04-15T05:24:11.811Z,99914.72
2024-04-15T05:26:40.001Z,99909.56
2024-04-15T05:29:08.120Z,99906.69
2024-04-15T05:31:34.892Z,99903.00
2024-04-15T05:34:01.799Z,99883.53
2024-04-15T05:36:31.041Z,99907.59
2024-04-15T05:38:58.694Z,99905.28
2024-04-15T05:41:25.460Z,99887.19
2024-04-15T05:43:52.932Z,99890.03
2024-04-15T05:46:19.781Z,99892.47
2024-04-15T05:48:47.692Z,99893.22
2024-04-15T05:51:23.363Z,99892.94
2024-04-15T05:53:50.908Z,99890.28
2024-04-15T05:56:18.890Z,99872.38
2024-04-15T05:58:48.293Z,99869.28
2024-04-15T06:01:16.463Z,99878.28
2024-04-15T06:03:43.789Z,99878.13
2024-04-15T06:06:11.838Z,99886.94
2024-04-15T06:08:38.549Z,99890.56
2024-04-15T06:11:06.831Z,99888.25
2024-04-15T06:13:33.629Z,99886.16
2024-04-15T06:16:00.733Z,99883.34
2024-04-15T06:18:27.554Z,99878.00
2024-04-15T06:20:54.265Z,99864.28
2024-04-15T06:23:21.071Z,99851.72
2024-04-15T06:25:55.667Z,99850.63
2024-04-15T06:28:22.417Z,99852.00
2024-04-15T06:30:49.679Z,99855.03
2024-04-15T06:33:16.723Z,99858.19
2024-04-15T06:35:43.851Z,99839.75
2024-04-15T06:38:14.538Z,99842.97
2024-04-15T06:40:42.449Z,99837.78
2024-04-15T06:43:09.685Z,99826.34
2024-04-15T06:45:36.409Z,99820.97
2024-04-15T06:48:03.486Z,99804.66
2024-04-15T06:50:30.197Z,99797.03
2024-04-15T06:52:57.190Z,99794.06
2024-04-15T06:55:23.951Z,99825.81
2024-04-15T06:57:50.887Z,99808.19
2024-04-15T07:00:17.799Z,99790.34
2024-04-15T07:02:44.478Z,99800.13
2024-04-15T07:05:11.269Z,99822.47
2024-04-15T07:07:38.274Z,99815.50
2024-04-15T07:10:08.185Z,99804.75
2024-04-15T07:12:35.012Z,99802.09
2024-04-15T07:15:01.661Z,99805.72
2024-04-15T07:17:28.420Z,99797.97
2024-04-15T07:19:55.113Z,99791.59
2024-04-15T07:22:22.500Z,99798.84
2024-04-15T07:24:49.476Z,99799.91
2024-04-15T07:27:16.130Z,99789.44
2024-04-15T07:29:42.815Z,99787.72
2024-04-15T07:32:09.578Z,99773.41
2024-04-15T07:34:36.349Z,99774.25
2024-04-15T07:37:03.230Z,99772.81
2024-04-15T07:39:30.023Z,99758.22
2024-04-15T07:41:56.736Z,99752.91
2024-04-15T07:44:23.472Z,99741.78
2024-04-15T07:46:50.450Z,99736.28
2024-04-15T07:49:17.743Z,99741.53
2024-04-15T07:51:45.992Z,99751.28
2024-04-15T07:54:24.745Z,99756.78
2024-04-15T07:56:52.835Z,99745.50
2024-04-15T07:59:21.537Z,99755.25
2024-04-15T08:01:53.018Z,99752.72
2024-04-15T08:04:20.686Z,99742.41
2024-04-15T08:06:53.921Z,99745.69
2024-04-15T08:09:27.527Z,99736.34
2024-04-15T08:11:54.799Z,99732.56
2024-04-15T08:14:23.644Z,99726.16
2024-04-15T08:16:50.472Z,99721.88
2024-04-15T08:19:19.348Z,99723.91
2024-04-15T08:21:46.753Z,99728.91
2024-04-15T08:24:13.545Z,99718.63
2024-04-15T08:26:41.375Z,99726.78
2024-04-15T08:29:09.847Z,99725.69
2024-04-15T08:31:37.328Z,99724.16
2024-04-15T08:34:04.096Z,99709.31
2024-04-15T08:36:30.946Z,99718.38
2024-04-15T08:38:57.729Z,99720.53
2024-04-15T08:41:30.168Z,99720.53
2024-04-15T08:44:08.918Z,99728.50
2024-04-15T08:46:48.797Z,99710.66
2024-04-15T08:49:16.005Z,99697.84
2024-04-15T08:51:43.172Z,99691.72
2024-04-15T08:54:10.011Z,99684.94
2024-04-15T08:56:38.921Z,99694.19
2024-04-15T08:59:10.972Z,99688.50
2024-04-15T09:01:40.251Z,99685.69
2024-04-15T09:04:08.816Z,99674.41
2024-04-15T09:06:35.729Z,99675.22
2024-04-15T09:09:06.467Z,99676.44
2024-04-15T09:11:36.984Z,99671.50
2024-04-15T09:14:06.575Z,99667.34
2024-04-15T09:16:35.563Z,99653.56
2024-04-15T09:19:08.340Z,99646.47
2024-04-15T09:21:35.602Z,99642.25
2024-04-15T09:24:03.380Z,99634.16
2024-04-15T09:26:31.890Z,99636.78
2024-04-15T09:28:58.688Z,99630.78
2024-04-15T09:31:25.675Z,99629.59
2024-04-15T09:33:53.176Z,99618.72
2024-04-15T09:36:20.667Z,99612.84
2024-04-15T09:38:49.855Z,99609.94
2024-04-15T09:41:16.946Z,99613.22
2024-04-15T09:43:49.153Z,99603.84
2024-04-15T09:46:21.086Z,99599.78
2024-04-15T09:48:50.490Z,99596.41
2024-04-15T09:51:25.078Z,99594.88
2024-04-15T09:53:53.728Z,99587.53
2024-04-15T09:56:28.851Z,99572.28
2024-04-15T09:59:04.855Z,99580.50
2024-04-15T10:01:33.513Z,99566.69
2024-04-15T10:04:04.586Z,99568.03
2024-04-15T10:06:54.107Z,99574.84
2024-04-15T10:09:21.343Z,99553.94
2024-04-15T10:11:50.822Z,99549.63
2024-04-15T10:14:18.519Z,99543.19
2024-04-15T10:16:52.657Z,99539.28
2024-04-15T10:19:35.123Z,99535.56
2024-04-15T10:22:02.818Z,99530.25
2024-04-15T10:24:40.472Z,99526.47
2024-04-15T10:27:12.330Z,99526.06
2024-04-15T10:29:39.984Z,99523.09
2024-04-15T10:32:08.809Z,99521.25
2024-04-15T10:34:45.511Z,99509.16
2024-04-15T10:37:16.847Z,99507.16
2024-04-15T10:39:49.541Z,99479.97
2024-04-15T10:42:16.402Z,99482.44
2024-04-15T10:44:43.343Z,99477.13
2024-04-15T10:47:10.659Z,99484.44
2024-04-15T10:49:37.786Z,99480.72
2024-04-15T10:52:06.132Z,99480.34
2024-04-15T10:54:33.953Z,99473.63
2024-04-15T10:57:01.569Z,99465.53
2024-04-15T10:59:30.303Z,99457.94
2024-04-15T11:01:57.227Z,99460.13
2024-04-15T11:04:28.329Z,99455.47
2024-04-15T11:06:55.919Z,99446.19
2024-04-15T11:09:23.921Z,99441.59
2024-04-15T11:11:51.652Z,99437.06
2024-04-15T11:14:21.680Z,99428.16
2024-04-15T11:16:49.180Z,99424.19
2024-04-15T11:19:19.818Z,99421.16
2024-04-15T11:21:47.531Z,99435.72
2024-04-15T11:24:15.269Z,99435.44
2024-04-15T11:26:46.241Z,99423.72
2024-04-15T11:29:17.617Z,99417.16
2024-04-15T11:31:48.843Z,99416.06
2024-04-15T11:34:18.425Z,99402.31
2024-04-15T11:36:46.220Z,99392.28
2024-04-15T11:39:14.731Z,99383.59
2024-04-15T11:41:42.291Z,99375.75
2024-04-15T11:44:10.406Z,99371.75
2024-04-15T11:46:43.542Z,99368.34
2024-04-15T11:49:10.485Z,99368.44
2024-04-15T11:51:37.411Z,99378.56
2024-04-15T11:54:04.329Z,99380.09
2024-04-15T11:56:32.125Z,99374.97
2024-04-15T11:58:59.391Z,99343.72
2024-04-15T12:01:29.444Z,99339.28
2024-04-15T12:03:58.925Z,99337.03
2024-04-15T12:06:26.250Z,99320.59
2024-04-15T12:08:53.198Z,99311.34
2024-04-15T12:11:23.281Z,99295.44
2024-04-15T12:13:50.274Z,99286.56
2024-04-15T12:16:19.323Z,99281.03
2024-04-15T12:18:46.109Z,99273.84
2024-04-15T12:21:14.181Z,99259.41
2024-04-15T12:23:42.377Z,99259.44
2024-04-15T12:26:09.336Z,99245.19
2024-04-15T12:28:36.905Z,99240.75
2024-04-15T12:31:04.528Z,99243.19
2024-04-15T12:33:34.331Z,99255.06
2024-04-15T12:36:02.128Z,99258.78
2024-04-15T12:38:28.915Z,99259.44
2024-04-15T12:40:57.133Z,99241.28
2024-04-15T12:43:24.429Z,99240.81
2024-04-15T12:45:52.840Z,99243.22
2024-04-15T12:48:20.309Z,99235.03
2024-04-15T12:50:53.568Z,99213.16
2024-04-15T12:53:20.307Z,99200.53
2024-04-15T12:55:47.767Z,99192.63
2024-04-15T12:58:14.695Z,99178.06
2024-04-15T13:00:47.085Z,99181.50
2024-04-15T13:03:16.676Z,99166.63
2024-04-15T13:05:43.614Z,99169.31
2024-04-15T13:08:11.810Z,99158.00
2024-04-15T13:10:38.727Z,99139.97
2024-04-15T13:13:06.699Z,99146.69
2024-04-15T13:15:35.982Z,99147.84
2024-04-15T13:18:05.400Z,99135.94
2024-04-15T13:20:33.124Z,99131.09
2024-04-15T13:23:04.441Z,99113.50
2024-04-15T13:25:35.094Z,99120.63
2024-04-15T13:28:03.752Z,99126.69
2024-04-15T13:30:32.687Z,99111.56
2024-04-15T13:33:03.015Z,99105.69
2024-04-15T13:35:31.080Z,99099.53
2024-04-15T13:38:01.268Z,99085.53
2024-04-15T13:40:28.575Z,99089.88
2024-04-15T13:42:59.827Z,99079.63
2024-04-15T13:45:26.693Z,99081.22
2024-04-15T13:47:54.631Z,99069.28
2024-04-15T13:50:23.237Z,99057.72
2024-04-15T13:52:50.631Z,99043.13
2024-04-15T13:55:18.981Z,99030.22
2024-04-15T13:57:46.095Z,99035.34
2024-04-15T14:00:14.818Z,99035.28
2024-04-15T14:02:42.453Z,99031.81
2024-04-15T14:05:13.507Z,99022.50
2024-04-15T14:07:45.039Z,99015.50
2024-04-15T14:10:13.326Z,98999.28
2024-04-15T14:12:42.664Z,98995.66
2024-04-15T14:15:09.848Z,98983.13
2024-04-15T14:17:37.713Z,98975.25
2024-04-15T14:20:06.927Z,98971.81
2024-04-15T14:22:37.507Z,98961.59
2024-04-15T14:25:06.006Z,98958.84
2024-04-15T14:27:34.746Z,98953.66
2024-04-15T14:30:05.054Z,98947.16
2024-04-15T14:32:32.804Z,98934.63
2024-04-15T14:35:02.342Z,98936.66
2024-04-15T14:37:34.143Z,98930.81
2024-04-15T14:40:11.736Z,98926.56
2024-04-15T14:42:43.340Z,98913.94
2024-04-15T14:45:12.730Z,98906.75
2024-04-15T14:47:49.161Z,98916.97
2024-04-15T14:50:21.493Z,98895.47
2024-04-15T14:52:53.670Z,98890.81
2024-04-15T14:55:21.928Z,98882.34
2024-04-15T14:58:01.664Z,98870.41
2024-04-15T15:00:29.012Z,98858.34
2024-04-15T15:02:56.302Z,98855.53
2024-04-15T15:05:23.086Z,98841.41
2024-04-15T15:07:52.733Z,98833.88
2024-04-15T15:10:22.372Z,98833.50
2024-04-15T15:12:55.866Z,98834.88
2024-04-15T15:15:26.172Z,98830.59
2024-04-15T15:17:56.108Z,98816.22
2024-04-15T15:20:24.388Z,98812.31
2024-04-15T15:22:51.944Z,98816.72
2024-04-15T15:25:20.091Z,98798.97
2024-04-15T15:27:49.739Z,98804.06
2024-04-15T15:30:22.685Z,98795.56
2024-04-15T15:32:50.481Z,98784.47
2024-04-15T15:35:17.406Z,98791.72
2024-04-15T15:37:46.084Z,98773.72
2024-04-15T15:40:15.844Z,98756.97
2024-04-15T15:42:48.177Z,98753.50
2024-04-15T15:45:17.277Z,98750.53
2024-04-15T15:47:44.908Z,98739.16
2024-04-15T15:50:14.569Z,98734.66
2024-04-15T15:52:43.566Z,98732.63
2024-04-15T15:55:11.349Z,98713.44
2024-04-15T15:57:39.424Z,98710.56
2024-04-15T16:00:09.073Z,98708.16
2024-04-15T16:02:48.525Z,98701.72
2024-04-15T16:05:19.023Z,98695.53
2024-04-15T16:07:47.445Z,98682.53
2024-04-15T16:10:18.739Z,98684.47
2024-04-15T16:12:50.541Z,98677.81
2024-04-15T16:15:20.865Z,98657.25
2024-04-15T16:17:48.272Z,98657.44
2024-04-15T16:20:15.222Z,98661.22
2024-04-15T16:22:45.960Z,98654.56
2024-04-15T16:25:14.189Z,98646.56
2024-04-15T16:27:41.349Z,98639.66
2024-04-15T16:30:09.075Z,98638.78
2024-04-15T16:32:43.381Z,98631.75
2024-04-15T16:35:17.611Z,98623.06
2024-04-15T16:37:45.826Z,98628.22
2024-04-15T16:40:16.898Z,98611.66
2024-04-15T16:42:45.924Z,98612.50
2024-04-15T16:45:15.191Z,98609.16
2024-04-15T16:47:47.458Z,98615.66
2024-04-15T16:50:18.898Z,98605.56
2024-04-15T16:52:47.300Z,98589.41
2024-04-15T16:55:15.648Z,98591.34
2024-04-15T16:57:43.987Z,98582.97
2024-04-15T17:00:11.797Z,98570.66
2024-04-15T17:02:42.516Z,98574.00
2024-04-15T17:05:09.688Z,98566.03
2024-04-15T17:07:41.989Z,98564.03
2024-04-15T17:10:12.983Z,98560.91
2024-04-15T17:12:45.214Z,98555.56
2024-04-15T17:15:13.423Z,98541.47
2024-04-15T17:17:42.801Z,98530.91
2024-04-15T17:20:12.197Z,98527.63
2024-04-15T17:22:42.505Z,98526.16
2024-04-15T17:25:09.612Z,98516.59
2024-04-15T17:27:42.781Z,98524.47
2024-04-15T17:30:14.992Z,98520.97
2024-04-15T17:32:42.363Z,98520.97
2024-04-15T17:35:12.104Z,98532.88
2024-04-15T17:37:43.948Z,98523.53
2024-04-15T17:40:13.933Z,98513.38
2024-04-15T17:42:41.260Z,98502.59
2024-04-15T17:45:08.313Z,98497.63
2024-04-15T17:47:36.577Z,98509.31
2024-04-15T17:50:17.091Z,98510.56
2024-04-15T17:52:50.158Z,98513.94
2024-04-15T17:55:20.916Z,98501.56
2024-04-15T17:57:50.741Z,98495.13
2024-04-15T18:00:22.523Z,98482.66
2024-04-15T18:02:51.852Z,98479.81
2024-04-15T18:05:21.644Z,98476.09
2024-04-15T18:07:50.711Z,98478.56
2024-04-15T18:10:26.527Z,98475.41
2024-04-15T18:18:21.585Z,98471.94
2024-04-15T18:20:50.741Z,98468.94
2024-04-15T18:23:17.661Z,98465.28
2024-04-15T18:25:45.726Z,98464.47
2024-04-15T18:28:13.873Z,98463.59
2024-04-15T18:30:40.881Z,98468.63
2024-04-15T18:33:08.521Z,98466.03
2024-04-15T18:35:41.592Z,98458.69
2024-04-15T18:38:16.032Z,98458.69
2024-04-15T18:40:45.606Z,98456.34
2024-04-15T18:43:12.802Z,98461.53
2024-04-15T18:45:42.281Z,98455.69
2024-04-15T18:48:09.405Z,98459.38
2024-04-15T18:53:17.723Z,98455.75
2024-04-15T18:55:58.649Z,98444.94
2024-04-15T18:58:33.215Z,98439.97
2024-04-15T19:01:06.360Z,98447.13
2024-04-15T19:03:34.802Z,98449.44
2024-04-15T19:06:02.554Z,98444.47
2024-04-15T19:08:29.529Z,98447.94
2024-04-15T19:10:56.467Z,98452.94
2024-04-15T19:13:25.055Z,98454.28
2024-04-15T19:15:52.789Z,98451.63
2024-04-15T19:18:20.187Z,98447.78
2024-04-15T19:20:47.213Z,98444.47
2024-04-15T19:23:14.171Z,98447.28
2024-04-15T19:25:41.109Z,98448.44
2024-04-15T19:28:08.720Z,98442.78
2024-04-15T19:30:37.752Z,98447.75
2024-04-15T19:33:06.592Z,98444.13
2024-04-15T19:35:33.930Z,98447.59
2024-04-15T19:38:05.442Z,98437.16
2024-04-15T19:40:32.637Z,98429.47
2024-04-15T19:45:51.488Z,98421.78
2024-04-15T19:48:20.010Z,98426.44
2024-04-15T19:50:56.302Z,98424.88
2024-04-15T19:53:36.892Z,98417.31
2024-04-15T20:01:31.630Z,98421.06
2024-04-15T20:03:58.770Z,98414.47
2024-04-15T20:06:25.674Z,98418.63
2024-04-15T20:08:54.508Z,98415.84
2024-04-15T20:11:22.207Z,98420.28
2024-04-15T20:13:50.102Z,98415.28
2024-04-15T20:16:19.240Z,98413.34
2024-04-15T20:19:02.826Z,98405.69
2024-04-15T20:21:30.504Z,98405.72
2024-04-15T20:23:58.367Z,98412.59
2024-04-15T20:26:25.636Z,98400.13
2024-04-15T20:29:04.681Z,98402.78
2024-04-15T20:31:31.686Z,98397.53
2024-04-15T20:34:00.079Z,98402.03
2024-04-15T20:36:29.219Z,98402.66
2024-04-15T20:38:56.352Z,98411.28
2024-04-15T20:41:23.556Z,98416.78
2024-04-15T20:43:50.906Z,98429.22
2024-04-15T20:46:18.494Z,98547.25
2024-04-15T20:48:45.541Z,98589.66
2024-04-15T20:51:12.795Z,98623.13
2024-04-15T20:53:42.767Z,98603.34
2024-04-15T20:56:09.869Z,98608.53
2024-04-15T20:58:36.752Z,98612.88
2024-04-15T21:01:05.271Z,98636.16
2024-04-15T21:03:33.317Z,98659.28
2024-04-15T21:06:00.271Z,98669.69
2024-04-15T21:08:28.586Z,98658.72
2024-04-15T21:10:55.690Z,98654.31
2024-04-15T21:13:22.917Z,98694.09
2024-04-15T21:15:49.936Z,98686.94
2024-04-15T21:18:16.851Z,98705.66
2024-04-15T21:26:17.239Z,98707.75
2024-04-15T21:34:17.022Z,98727.72
2024-04-15T21:36:50.499Z,98728.31
2024-04-15T21:39:17.410Z,98744.28
2024-04-15T21:41:44.246Z,98756.44
2024-04-15T21:44:11.396Z,98750.78
2024-04-15T21:46:38.341Z,98750.25
2024-04-15T21:49:08.278Z,98764.78
2024-04-15T21:51:35.221Z,98757.25
2024-04-15T21:54:02.087Z,98774.41
2024-04-15T21:56:30.255Z,98796.50
2024-04-15T21:58:58.803Z,98779.06
2024-04-15T22:01:25.661Z,98789.22
2024-04-15T22:03:52.749Z,98796.59
2024-04-15T22:06:20.122Z,98780.16
2024-04-15T22:08:46.977Z,98786.25
2024-04-15T22:11:14.006Z,98791.09
2024-04-15T22:13:40.910Z,98813.19
2024-04-15T22:16:10.648Z,98816.75
2024-04-15T22:18:37.549Z,98800.53
2024-04-15T22:21:04.567Z,98801.31
2024-04-15T22:23:31.419Z,98800.38
2024-04-15T22:25:59.038Z,98797.09
2024-04-15T22:28:26.397Z,98802.78
2024-04-15T22:30:53.231Z,98797.19
2024-04-15T22:33:24.769Z,98785.28
2024-04-15T22:35:55.458Z,98778.66
2024-04-15T22:38:26.427Z,98785.91
2024-04-15T22:40:56.152Z,98809.97
2024-04-15T22:43:22.962Z,98836.75
2024-04-15T22:45:49.842Z,98846.75
2024-04-15T22:48:18.869Z,98862.03
2024-04-15T22:50:45.717Z,98858.97
2024-04-15T22:53:12.848Z,98851.63
2024-04-15T22:55:40.348Z,98858.13
2024-04-15T22:58:07.102Z,98858.75
2024-04-15T23:00:33.867Z,98857.91
2024-04-15T23:03:01.426Z,98841.94
2024-04-15T23:05:28.287Z,98833.88
2024-04-15T23:07:55.044Z,98839.97
2024-04-15T23:10:22.445Z,98851.09
2024-04-15T23:12:49.293Z,98836.19
2024-04-15T23:15:16.183Z,98849.63
2024-04-15T23:17:43.166Z,98863.38
2024-04-15T23:20:10.377Z,98848.59
2024-04-15T23:22:37.137Z,98855.72
2024-04-15T23:25:04.359Z,98856.78
2024-04-15T23:27:31.321Z,98860.97
2024-04-15T23:29:58.040Z,98866.81
2024-04-15T23:32:24.813Z,98869.91
2024-04-15T23:34:51.745Z,98868.13
2024-04-15T23:37:18.664Z,98871.97
2024-04-15T23:39:45.539Z,98859.28
2024-04-15T23:42:12.366Z,98851.31
2024-04-15T23:44:39.122Z,98851.31
2024-04-15T23:47:05.983Z,98856.97
2024-04-15T23:49:33.589Z,98853.72
2024-04-15T23:52:00.540Z,98866.53
2024-04-15T23:54:27.443Z,98873.66
2024-04-15T23:56:54.300Z,98879.44
2024-04-15T23:59:22.610Z,98879.63
